Time;durP1;ratioP1;P1;durP2;ratioP2;P2;SDS_P1;SDS_P2;PMS_P1;PMS_P2;Temp;Humidity;BMP_temperature;BMP_pressure;BME280_temperature;BME280_humidity;BME280_pressure;Samples;Min_cycle;Max_cycle;Signal;HPM_P1;HPM_P2
2021/10/04 00:02:21;;;;;;;1.15;0.70;;;;;;;;;;5053450;28;20056;-76
2021/10/04 00:04:49;;;;;;;2.50;0.60;;;;;;;;;;5053753;28;20362;-76
2021/10/04 00:07:22;;;;;;;1.75;0.73;;;;;;;;;;5052953;28;20056;-76
2021/10/04 00:09:49;;;;;;;1.23;0.70;;;;;;;;;;5052574;28;20044;-76
2021/10/04 00:12:16;;;;;;;2.28;1.05;;;;;;;;;;5052747;28;20051;-75
2021/10/04 00:14:44;;;;;;;0.98;0.57;;;;;;;;;;5053461;28;20528;-76
2021/10/04 00:17:11;;;;;;;1.98;0.50;;;;;;;;;;5052420;28;20037;-76
2021/10/04 00:19:38;;;;;;;1.77;0.80;;;;;;;;;;5056279;28;20017;-76
2021/10/04 00:22:05;;;;;;;1.63;0.73;;;;;;;;;;5053550;28;20540;-76
2021/10/04 00:24:33;;;;;;;2.08;0.80;;;;;;;;;;5054793;28;20021;-76
2021/10/04 00:27:00;;;;;;;1.17;0.77;;;;;;;;;;5035656;28;20024;-75
2021/10/04 00:29:27;;;;;;;2.45;0.75;;;;;;;;;;5034726;28;20034;-76
2021/10/04 00:31:54;;;;;;;2.03;1.00;;;;;;;;;;5054355;28;20034;-76
2021/10/04 00:34:22;;;;;;;1.85;0.50;;;;;;;;;;5057109;28;20013;-75
2021/10/04 00:36:49;;;;;;;2.05;0.77;;;;;;;;;;5054924;28;20021;-74
2021/10/04 00:39:16;;;;;;;2.25;0.80;;;;;;;;;;5057246;28;20045;-75
2021/10/04 00:41:43;;;;;;;1.73;0.70;;;;;;;;;;5055145;28;20104;-76
2021/10/04 00:44:11;;;;;;;1.60;0.70;;;;;;;;;;5037491;28;20482;-74
2021/10/04 00:46:38;;;;;;;1.48;1.00;;;;;;;;;;5051061;28;20480;-75
2021/10/04 00:49:06;;;;;;;2.42;0.80;;;;;;;;;;5056433;28;20036;-75
2021/10/04 00:51:33;;;;;;;3.13;1.67;;;;;;;;;;5054692;28;20107;-75
2021/10/04 00:54:00;;;;;;;2.05;1.00;;;;;;;;;;5055368;28;20559;-75
2021/10/04 00:56:28;;;;;;;2.72;1.27;;;;;;;;;;5055464;28;20021;-76
2021/10/04 00:58:55;;;;;;;2.88;1.40;;;;;;;;;;5057533;28;20035;-76
2021/10/04 01:01:23;;;;;;;2.58;1.08;;;;;;;;;;5035328;28;20118;-76
2021/10/04 01:03:50;;;;;;;2.45;1.05;;;;;;;;;;5046987;28;20025;-75
2021/10/04 01:06:17;;;;;;;2.85;1.75;;;;;;;;;;5055946;28;20017;-75
2021/10/04 01:08:44;;;;;;;4.35;2.20;;;;;;;;;;5054530;28;20493;-75
2021/10/04 01:11:12;;;;;;;2.55;1.42;;;;;;;;;;5055660;28;20083;-75
2021/10/04 01:13:39;;;;;;;2.70;1.17;;;;;;;;;;5053873;28;20055;-76
2021/10/04 01:16:06;;;;;;;1.42;0.73;;;;;;;;;;5054978;28;20029;-76
2021/10/04 01:18:35;;;;;;;4.32;1.10;;;;;;;;;;5052696;28;20086;-76
2021/10/04 01:21:02;;;;;;;1.08;0.50;;;;;;;;;;5056235;28;20021;-75
2021/10/04 01:23:29;;;;;;;1.13;0.65;;;;;;;;;;5053333;28;20017;-77
2021/10/04 01:25:57;;;;;;;4.30;0.40;;;;;;;;;;5050959;28;20381;-77
2021/10/04 01:28:24;;;;;;;1.63;0.50;;;;;;;;;;5053108;28;20106;-77
2021/10/04 01:30:51;;;;;;;2.20;0.77;;;;;;;;;;5055704;28;20021;-76
2021/10/04 01:33:20;;;;;;;1.23;0.52;;;;;;;;;;5053997;28;20029;-75
2021/10/04 01:35:47;;;;;;;1.27;0.60;;;;;;;;;;5053903;28;20025;-77
2021/10/04 01:38:14;;;;;;;1.33;0.45;;;;;;;;;;5052568;28;20104;-77
2021/10/04 01:40:43;;;;;;;2.45;0.60;;;;;;;;;;5045768;28;20052;-78
2021/10/04 01:43:14;;;;;;;2.85;0.40;;;;;;;;;;5046727;28;20021;-77
2021/10/04 01:45:41;;;;;;;0.75;0.40;;;;;;;;;;5055000;28;20021;-76
2021/10/04 01:48:09;;;;;;;1.75;0.40;;;;;;;;;;5052350;28;20033;-77
2021/10/04 01:50:36;;;;;;;1.88;0.40;;;;;;;;;;5053398;28;20470;-76
2021/10/04 01:53:04;;;;;;;0.50;0.20;;;;;;;;;;5043480;28;20026;-76
2021/10/04 01:55:31;;;;;;;1.27;0.40;;;;;;;;;;5034680;28;20034;-77
2021/10/04 01:57:59;;;;;;;1.63;0.50;;;;;;;;;;5042473;28;20037;-76
2021/10/04 02:00:26;;;;;;;1.02;0.43;;;;;;;;;;5034395;28;20389;-75
2021/10/04 02:02:54;;;;;;;1.65;0.30;;;;;;;;;;5044641;28;20029;-76
2021/10/04 02:05:22;;;;;;;1.63;0.55;;;;;;;;;;5055809;28;20488;-77
2021/10/04 02:07:50;;;;;;;2.45;0.50;;;;;;;;;;5052802;28;20064;-78
2021/10/04 02:10:18;;;;;;;1.83;0.50;;;;;;;;;;5054059;28;20359;-76
2021/10/04 02:12:46;;;;;;;1.27;0.40;;;;;;;;;;5053647;28;20039;-77
2021/10/04 02:15:14;;;;;;;2.03;0.38;;;;;;;;;;5058703;28;20028;-76
2021/10/04 02:17:42;;;;;;;1.45;0.47;;;;;;;;;;5049069;28;20382;-75
2021/10/04 02:20:10;;;;;;;1.42;0.40;;;;;;;;;;5050280;28;20079;-76
2021/10/04 02:22:37;;;;;;;1.45;0.57;;;;;;;;;;5051083;28;20030;-75
2021/10/04 02:25:05;;;;;;;3.35;0.43;;;;;;;;;;5053237;28;20493;-77
2021/10/04 02:27:32;;;;;;;1.75;0.32;;;;;;;;;;5051848;28;20029;-76
2021/10/04 02:29:59;;;;;;;3.70;0.50;;;;;;;;;;5053570;28;20021;-76
2021/10/04 02:32:26;;;;;;;0.85;0.25;;;;;;;;;;5051761;28;20074;-75
2021/10/04 02:34:53;;;;;;;1.20;0.38;;;;;;;;;;5053779;28;20166;-75
2021/10/04 02:37:21;;;;;;;0.98;0.30;;;;;;;;;;5052112;28;20028;-75
2021/10/04 02:39:48;;;;;;;1.73;0.30;;;;;;;;;;5053104;28;20612;-76
2021/10/04 02:42:18;;;;;;;1.52;0.50;;;;;;;;;;5051811;28;20028;-76
2021/10/04 02:44:45;;;;;;;1.50;1.02;;;;;;;;;;5053344;28;20033;-77
2021/10/04 02:47:12;;;;;;;1.42;0.43;;;;;;;;;;5051594;28;20442;-75
2021/10/04 02:49:39;;;;;;;1.55;0.45;;;;;;;;;;5052443;28;20037;-76
2021/10/04 02:52:07;;;;;;;1.05;0.40;;;;;;;;;;5050982;28;20477;-76
2021/10/04 02:54:34;;;;;;;1.90;0.40;;;;;;;;;;5052269;28;20389;-76
2021/10/04 02:57:01;;;;;;;1.85;0.88;;;;;;;;;;5036135;28;20036;-76
2021/10/04 02:59:28;;;;;;;3.03;0.40;;;;;;;;;;5056497;28;20029;-76
2021/10/04 03:01:55;;;;;;;3.75;0.32;;;;;;;;;;5054354;28;20033;-75
2021/10/04 03:04:25;;;;;;;2.35;0.30;;;;;;;;;;5056996;28;20047;-77
2021/10/04 03:06:52;;;;;;;0.88;0.40;;;;;;;;;;5055409;28;20049;-76
2021/10/04 03:09:20;;;;;;;1.48;0.65;;;;;;;;;;5056867;28;20516;-75
2021/10/04 03:11:47;;;;;;;1.75;0.30;;;;;;;;;;5054611;28;20029;-76
2021/10/04 03:14:14;;;;;;;0.70;0.20;;;;;;;;;;5056012;28;20021;-76
2021/10/04 03:16:41;;;;;;;2.15;0.40;;;;;;;;;;5056208;28;20029;-75
2021/10/04 03:19:08;;;;;;;2.88;0.50;;;;;;;;;;5056609;28;20578;-77
2021/10/04 03:21:35;;;;;;;2.33;0.57;;;;;;;;;;5055471;28;20477;-77
2021/10/04 03:24:03;;;;;;;3.08;0.50;;;;;;;;;;5056681;28;20025;-76
2021/10/04 03:26:30;;;;;;;1.27;0.40;;;;;;;;;;5057338;28;20021;-76
2021/10/04 03:28:57;;;;;;;0.82;0.30;;;;;;;;;;5054804;28;20049;-77
2021/10/04 03:31:24;;;;;;;1.00;0.30;;;;;;;;;;5057795;28;20018;-77
2021/10/04 03:33:51;;;;;;;3.53;0.45;;;;;;;;;;5054546;28;20021;-77
2021/10/04 03:36:18;;;;;;;1.85;0.30;;;;;;;;;;5057465;28;20074;-76
2021/10/04 03:38:46;;;;;;;1.45;0.20;;;;;;;;;;5055639;28;20045;-76
2021/10/04 03:41:13;;;;;;;1.92;0.38;;;;;;;;;;5056632;28;20037;-76
2021/10/04 03:43:40;;;;;;;2.10;0.43;;;;;;;;;;5055726;28;20033;-77
2021/10/04 03:46:07;;;;;;;2.50;0.40;;;;;;;;;;5054462;28;20017;-75
2021/10/04 03:48:34;;;;;;;0.40;0.20;;;;;;;;;;5051518;28;20036;-76
2021/10/04 03:51:01;;;;;;;0.85;0.20;;;;;;;;;;5056187;28;20428;-75
2021/10/04 03:53:28;;;;;;;1.02;0.50;;;;;;;;;;5055300;28;20033;-77
2021/10/04 03:55:55;;;;;;;1.15;0.30;;;;;;;;;;5056162;28;20021;-76
2021/10/04 03:58:22;;;;;;;0.98;0.25;;;;;;;;;;5054896;28;20025;-76
2021/10/04 04:00:50;;;;;;;0.80;0.17;;;;;;;;;;5055888;28;20028;-77
2021/10/04 04:03:17;;;;;;;2.05;0.20;;;;;;;;;;5055025;28;20031;-77
2021/10/04 04:05:44;;;;;;;1.17;0.30;;;;;;;;;;5054650;28;20025;-76
2021/10/04 04:08:11;;;;;;;2.53;0.40;;;;;;;;;;5051725;28;20048;-76
2021/10/04 04:10:38;;;;;;;2.05;0.30;;;;;;;;;;5049647;28;20022;-76
2021/10/04 04:13:05;;;;;;;2.40;0.40;;;;;;;;;;5048232;28;20060;-77
2021/10/04 04:15:33;;;;;;;0.52;0.20;;;;;;;;;;5054095;28;20036;-76
2021/10/04 04:18:01;;;;;;;1.98;0.40;;;;;;;;;;5054261;28;20033;-75
2021/10/04 04:20:28;;;;;;;0.47;0.20;;;;;;;;;;5054798;28;20032;-77
2021/10/04 04:22:55;;;;;;;2.60;0.40;;;;;;;;;;5052875;28;20027;-76
2021/10/04 04:25:22;;;;;;;1.85;0.25;;;;;;;;;;5055819;28;20080;-76
2021/10/04 04:27:49;;;;;;;1.20;0.40;;;;;;;;;;5054026;28;20037;-75
2021/10/04 04:30:16;;;;;;;0.98;0.22;;;;;;;;;;5055026;28;20393;-77
2021/10/04 04:32:45;;;;;;;1.33;0.30;;;;;;;;;;5053972;28;20075;-76
2021/10/04 04:35:12;;;;;;;2.15;0.30;;;;;;;;;;5054956;28;20013;-76
2021/10/04 04:37:41;;;;;;;2.08;0.65;;;;;;;;;;5053483;28;20418;-75
2021/10/04 04:40:09;;;;;;;3.70;0.40;;;;;;;;;;5053086;28;20150;-76
2021/10/04 04:42:36;;;;;;;1.85;0.40;;;;;;;;;;5048824;28;20412;-76
2021/10/04 04:45:04;;;;;;;1.00;0.20;;;;;;;;;;5053130;28;20433;-76
2021/10/04 04:47:31;;;;;;;1.63;0.30;;;;;;;;;;5052440;28;20053;-76
2021/10/04 04:49:58;;;;;;;0.52;0.25;;;;;;;;;;5053127;28;20111;-76
2021/10/04 04:52:26;;;;;;;1.23;0.30;;;;;;;;;;5052623;28;20112;-77
2021/10/04 04:54:53;;;;;;;1.35;0.15;;;;;;;;;;5054906;28;20105;-76
2021/10/04 04:57:20;;;;;;;1.35;0.32;;;;;;;;;;5052110;28;20044;-75
2021/10/04 04:59:47;;;;;;;0.57;0.22;;;;;;;;;;5054105;28;20037;-73
2021/10/04 05:02:14;;;;;;;1.45;0.43;;;;;;;;;;5042450;28;20430;-73
2021/10/04 05:04:41;;;;;;;3.53;0.43;;;;;;;;;;5043696;28;20026;-73
2021/10/04 05:07:08;;;;;;;4.22;0.40;;;;;;;;;;5042962;28;20766;-74
2021/10/04 05:09:35;;;;;;;2.00;0.30;;;;;;;;;;5044588;28;20095;-76
2021/10/04 05:12:02;;;;;;;0.70;0.20;;;;;;;;;;5038261;28;20530;-76
2021/10/04 05:14:30;;;;;;;0.90;0.40;;;;;;;;;;5044298;28;20036;-78
2021/10/04 05:16:57;;;;;;;0.60;0.20;;;;;;;;;;5040334;28;20038;-78
2021/10/04 05:19:24;;;;;;;0.90;0.25;;;;;;;;;;5040205;28;20032;-77
2021/10/04 05:21:51;;;;;;;1.10;0.40;;;;;;;;;;5037354;28;20033;-73
2021/10/04 05:24:18;;;;;;;0.93;0.40;;;;;;;;;;5039897;28;20021;-75
2021/10/04 05:26:45;;;;;;;0.45;0.30;;;;;;;;;;5034375;28;20415;-75
2021/10/04 05:29:12;;;;;;;0.98;0.30;;;;;;;;;;5039897;28;20029;-75
2021/10/04 05:31:40;;;;;;;2.03;0.57;;;;;;;;;;5047574;28;20140;-75
2021/10/04 05:34:07;;;;;;;1.15;0.20;;;;;;;;;;5053089;28;20033;-75
2021/10/04 05:36:34;;;;;;;1.23;0.20;;;;;;;;;;5041943;28;20021;-77
2021/10/04 05:39:01;;;;;;;1.75;0.28;;;;;;;;;;5041865;28;20409;-74
2021/10/04 05:41:28;;;;;;;1.13;0.22;;;;;;;;;;5041112;28;20025;-75
2021/10/04 05:43:55;;;;;;;1.58;0.20;;;;;;;;;;5043612;28;20024;-76
2021/10/04 05:46:22;;;;;;;1.10;0.20;;;;;;;;;;5042662;28;20033;-75
2021/10/04 05:48:50;;;;;;;0.80;0.20;;;;;;;;;;5043030;28;20029;-75
2021/10/04 05:51:17;;;;;;;0.43;0.28;;;;;;;;;;5061674;28;20040;-73
2021/10/04 05:53:45;;;;;;;0.35;0.25;;;;;;;;;;5036632;28;20392;-76
2021/10/04 05:56:12;;;;;;;1.10;0.35;;;;;;;;;;5035992;28;20049;-74
2021/10/04 05:58:39;;;;;;;0.45;0.20;;;;;;;;;;5041410;28;20021;-74
2021/10/04 06:01:06;;;;;;;0.85;0.38;;;;;;;;;;5038352;28;20394;-75
2021/10/04 06:03:33;;;;;;;0.88;0.30;;;;;;;;;;5039254;28;20377;-75
2021/10/04 06:06:00;;;;;;;2.25;0.20;;;;;;;;;;5043407;28;20106;-73
2021/10/04 06:08:27;;;;;;;1.13;0.30;;;;;;;;;;5044296;28;20033;-73
2021/10/04 06:10:55;;;;;;;0.75;0.20;;;;;;;;;;5057874;28;20021;-76
2021/10/04 06:13:22;;;;;;;1.38;0.28;;;;;;;;;;5041057;28;20096;-75
2021/10/04 06:15:49;;;;;;;1.30;0.32;;;;;;;;;;5037032;28;20029;-75
2021/10/04 06:18:18;;;;;;;1.00;0.30;;;;;;;;;;5042633;28;20025;-74
2021/10/04 06:20:45;;;;;;;0.63;0.30;;;;;;;;;;5043438;28;20023;-74
2021/10/04 06:23:12;;;;;;;0.43;0.20;;;;;;;;;;5042213;28;20037;-73
2021/10/04 06:25:39;;;;;;;2.83;0.40;;;;;;;;;;5039323;28;20044;-74
2021/10/04 06:28:07;;;;;;;0.52;0.22;;;;;;;;;;5039488;28;20123;-74
2021/10/04 06:30:34;;;;;;;0.82;0.25;;;;;;;;;;5038682;28;20032;-74
2021/10/04 06:33:02;;;;;;;0.50;0.20;;;;;;;;;;5041032;28;20035;-72
2021/10/04 06:35:29;;;;;;;1.00;0.20;;;;;;;;;;5038525;28;20038;-74
2021/10/04 06:37:56;;;;;;;3.08;0.30;;;;;;;;;;5033754;28;20026;-74
2021/10/04 06:40:24;;;;;;;0.82;0.28;;;;;;;;;;5037169;28;20095;-75
2021/10/04 06:42:51;;;;;;;1.15;0.30;;;;;;;;;;5039409;28;20033;-71
2021/10/04 06:45:18;;;;;;;1.70;0.40;;;;;;;;;;5036903;28;20145;-73
2021/10/04 06:47:45;;;;;;;1.02;0.20;;;;;;;;;;5044435;28;20034;-72
2021/10/04 06:50:13;;;;;;;1.27;0.10;;;;;;;;;;5040137;28;20022;-73
2021/10/04 06:52:41;;;;;;;1.42;0.30;;;;;;;;;;5043198;28;20060;-73
2021/10/04 06:55:09;;;;;;;1.00;0.40;;;;;;;;;;5042892;28;20051;-75
2021/10/04 06:57:37;;;;;;;1.55;0.65;;;;;;;;;;5038755;28;20036;-73
2021/10/04 07:00:09;;;;;;;1.02;0.38;;;;;;;;;;5044550;28;20017;-72
2021/10/04 07:02:37;;;;;;;2.75;1.48;;;;;;;;;;5040579;28;20060;-73
2021/10/04 07:05:05;;;;;;;1.67;0.65;;;;;;;;;;5041835;28;20092;-74
2021/10/04 07:07:32;;;;;;;2.72;0.50;;;;;;;;;;5040848;28;20064;-72
2021/10/04 07:09:59;;;;;;;1.05;0.40;;;;;;;;;;5045206;28;20071;-73
2021/10/04 07:12:26;;;;;;;1.50;0.40;;;;;;;;;;5034217;28;20071;-73
2021/10/04 07:14:55;;;;;;;1.83;0.38;;;;;;;;;;5040533;28;20036;-73
2021/10/04 07:17:22;;;;;;;1.08;0.52;;;;;;;;;;5045111;28;20086;-73
2021/10/04 07:19:49;;;;;;;2.67;0.60;;;;;;;;;;5033254;28;20030;-74
2021/10/04 07:22:18;;;;;;;1.30;0.50;;;;;;;;;;5047831;28;20159;-74
2021/10/04 07:24:45;;;;;;;6.25;0.52;;;;;;;;;;5034514;28;20026;-73
2021/10/04 07:27:12;;;;;;;2.92;0.50;;;;;;;;;;5034854;28;20021;-70
2021/10/04 07:29:39;;;;;;;1.95;0.45;;;;;;;;;;5035936;28;20037;-73
2021/10/04 07:32:06;;;;;;;1.23;0.40;;;;;;;;;;5032539;28;20547;-73
2021/10/04 07:34:34;;;;;;;1.20;0.40;;;;;;;;;;5048203;28;20032;-72
2021/10/04 07:37:01;;;;;;;3.10;0.70;;;;;;;;;;5034923;28;20033;-71
2021/10/04 07:39:29;;;;;;;1.35;0.40;;;;;;;;;;5050657;28;20041;-73
2021/10/04 07:41:57;;;;;;;3.25;0.70;;;;;;;;;;5048214;28;20082;-71
2021/10/04 07:44:25;;;;;;;3.78;0.45;;;;;;;;;;5041384;28;20017;-71
2021/10/04 07:46:53;;;;;;;0.75;0.50;;;;;;;;;;5035603;28;20036;-72
2021/10/04 07:49:21;;;;;;;6.07;0.90;;;;;;;;;;5054870;28;20040;-70
2021/10/04 07:51:48;;;;;;;4.18;0.88;;;;;;;;;;5045226;28;20059;-69
2021/10/04 07:54:15;;;;;;;7.82;1.60;;;;;;;;;;5035236;28;20021;-73
2021/10/04 07:56:44;;;;;;;2.15;0.82;;;;;;;;;;5041256;28;20510;-72
2021/10/04 07:59:11;;;;;;;4.03;0.77;;;;;;;;;;5043756;28;21848;-72
2021/10/04 08:01:38;;;;;;;6.72;0.70;;;;;;;;;;5036014;28;20547;-71
2021/10/04 08:04:06;;;;;;;3.97;1.08;;;;;;;;;;5054468;28;20035;-71
2021/10/04 08:06:33;;;;;;;3.00;0.70;;;;;;;;;;5048004;28;20033;-73
2021/10/04 08:09:00;;;;;;;4.32;0.85;;;;;;;;;;5046941;28;20563;-73
2021/10/04 08:11:27;;;;;;;3.25;0.98;;;;;;;;;;5047181;28;20086;-72
2021/10/04 08:13:54;;;;;;;4.78;0.93;;;;;;;;;;5043476;28;20045;-73
2021/10/04 08:16:22;;;;;;;3.63;1.33;;;;;;;;;;5052084;28;20021;-72
2021/10/04 08:18:50;;;;;;;3.95;0.77;;;;;;;;;;5053337;28;20033;-73
2021/10/04 08:21:17;;;;;;;5.55;1.50;;;;;;;;;;5049952;28;20021;-71
2021/10/04 08:23:45;;;;;;;2.85;0.82;;;;;;;;;;5042875;28;20024;-72
2021/10/04 08:26:12;;;;;;;3.60;0.88;;;;;;;;;;5050549;28;20029;-72
2021/10/04 08:28:39;;;;;;;3.90;1.23;;;;;;;;;;5042250;28;20044;-72
2021/10/04 08:31:06;;;;;;;2.90;0.70;;;;;;;;;;5042052;28;20026;-70
2021/10/04 08:33:35;;;;;;;5.00;0.88;;;;;;;;;;5039494;28;20450;-72
2021/10/04 08:36:04;;;;;;;3.75;0.70;;;;;;;;;;5034476;28;20049;-73
2021/10/04 08:38:32;;;;;;;2.35;0.50;;;;;;;;;;5046849;28;20132;-71
2021/10/04 08:40:59;;;;;;;2.67;0.60;;;;;;;;;;5048313;28;20052;-73
2021/10/04 08:43:26;;;;;;;4.30;0.90;;;;;;;;;;5049357;28;20022;-73
2021/10/04 08:45:57;;;;;;;4.68;0.70;;;;;;;;;;5038856;28;20061;-73
2021/10/04 08:48:25;;;;;;;5.13;0.95;;;;;;;;;;5040921;28;20029;-73
2021/10/04 08:50:55;;;;;;;4.18;1.05;;;;;;;;;;5048614;28;20056;-72
2021/10/04 08:53:22;;;;;;;4.57;0.60;;;;;;;;;;5048246;28;20018;-73
2021/10/04 08:55:49;;;;;;;4.22;0.90;;;;;;;;;;5041718;28;20100;-71
2021/10/04 08:58:16;;;;;;;4.85;0.93;;;;;;;;;;5047012;28;20456;-73
2021/10/04 09:00:43;;;;;;;4.05;0.38;;;;;;;;;;5050011;28;20383;-73
2021/10/04 09:03:12;;;;;;;2.92;0.80;;;;;;;;;;5043306;28;20494;-72
2021/10/04 09:05:44;;;;;;;5.93;1.15;;;;;;;;;;5039465;28;20036;-72
2021/10/04 09:08:16;;;;;;;3.63;0.50;;;;;;;;;;5041354;28;20320;-73
2021/10/04 09:10:44;;;;;;;3.35;0.60;;;;;;;;;;5050837;28;20052;-73
2021/10/04 09:13:13;;;;;;;6.45;1.10;;;;;;;;;;5041715;28;20675;-73
2021/10/04 09:15:41;;;;;;;4.85;1.30;;;;;;;;;;5042063;28;20017;-73
2021/10/04 09:18:08;;;;;;;4.28;1.23;;;;;;;;;;5042230;28;20470;-73
2021/10/04 09:20:48;;;;;;;2.25;0.68;;;;;;;;;;5040576;28;20479;-73
2021/10/04 09:23:35;;;;;;;5.28;1.23;;;;;;;;;;5036075;28;20033;-73
2021/10/04 09:26:03;;;;;;;5.32;0.70;;;;;;;;;;5040362;28;20065;-74
2021/10/04 09:28:35;;;;;;;7.22;0.82;;;;;;;;;;5046121;28;20042;-72
2021/10/04 09:31:21;;;;;;;3.33;0.80;;;;;;;;;;5044911;28;20029;-73
2021/10/04 09:34:05;;;;;;;6.35;1.10;;;;;;;;;;5046262;28;20425;-73
2021/10/04 09:36:33;;;;;;;3.75;0.57;;;;;;;;;;5038000;28;20052;-74
2021/10/04 09:39:15;;;;;;;3.05;0.57;;;;;;;;;;5041756;28;20045;-73
2021/10/04 09:42:01;;;;;;;4.65;0.90;;;;;;;;;;5037275;28;20017;-73
2021/10/04 09:44:43;;;;;;;2.72;0.90;;;;;;;;;;5042073;28;20029;-73
2021/10/04 09:47:12;;;;;;;2.47;0.88;;;;;;;;;;5043742;28;20023;-73
2021/10/04 09:49:48;;;;;;;4.00;0.85;;;;;;;;;;5052451;28;20041;-73
2021/10/04 09:52:15;;;;;;;3.83;0.70;;;;;;;;;;5043233;28;20025;-73
2021/10/04 09:54:45;;;;;;;4.85;0.70;;;;;;;;;;5035452;28;20028;-73
2021/10/04 09:57:22;;;;;;;6.18;0.82;;;;;;;;;;5046301;28;20103;-73
2021/10/04 09:59:49;;;;;;;6.32;0.60;;;;;;;;;;5036468;28;20053;-73
2021/10/04 10:02:18;;;;;;;5.90;0.75;;;;;;;;;;5039325;28;20106;-73
2021/10/04 10:04:47;;;;;;;3.92;0.93;;;;;;;;;;5035557;28;20044;-74
2021/10/04 10:07:15;;;;;;;5.70;0.85;;;;;;;;;;5041014;28;20017;-73
2021/10/04 10:09:42;;;;;;;4.72;0.98;;;;;;;;;;5041512;28;20032;-74
2021/10/04 10:12:10;;;;;;;5.15;1.00;;;;;;;;;;5044990;28;20029;-74
2021/10/04 10:14:44;;;;;;;3.22;0.65;;;;;;;;;;5048940;28;20025;-74
2021/10/04 10:17:31;;;;;;;3.40;0.70;;;;;;;;;;5050950;28;20025;-74
2021/10/04 10:19:59;;;;;;;3.78;0.77;;;;;;;;;;5033420;28;20506;-74
2021/10/04 10:22:32;;;;;;;4.22;0.95;;;;;;;;;;5041699;28;20769;-74
2021/10/04 10:25:00;;;;;;;4.85;0.80;;;;;;;;;;5045391;28;20099;-73
2021/10/04 10:27:47;;;;;;;4.60;1.05;;;;;;;;;;5037768;28;20423;-74
2021/10/04 10:30:21;;;;;;;1.83;0.40;;;;;;;;;;5032896;28;20104;-73
2021/10/04 10:32:48;;;;;;;4.03;0.70;;;;;;;;;;5047920;28;20067;-73
2021/10/04 10:35:15;;;;;;;5.78;1.25;;;;;;;;;;5046229;28;20083;-74
2021/10/04 10:37:50;;;;;;;5.90;1.17;;;;;;;;;;5041149;28;20029;-73
2021/10/04 10:40:24;;;;;;;3.90;0.65;;;;;;;;;;5049402;28;20087;-74
2021/10/04 10:43:03;;;;;;;5.53;0.75;;;;;;;;;;5050632;28;20425;-74
2021/10/04 10:45:41;;;;;;;4.20;0.90;;;;;;;;;;5064493;28;20132;-74
2021/10/04 10:48:09;;;;;;;2.85;0.80;;;;;;;;;;5048365;28;20498;-73
2021/10/04 10:50:38;;;;;;;3.95;0.90;;;;;;;;;;5035642;28;20079;-73
2021/10/04 10:53:16;;;;;;;3.97;0.50;;;;;;;;;;5042876;28;20017;-73
2021/10/04 10:55:59;;;;;;;11.68;0.95;;;;;;;;;;5036815;28;20025;-74
2021/10/04 10:58:27;;;;;;;3.50;0.60;;;;;;;;;;5050751;28;20033;-73
2021/10/04 11:01:03;;;;;;;1.65;0.60;;;;;;;;;;5045806;28;20028;-74
2021/10/04 11:03:31;;;;;;;4.00;0.82;;;;;;;;;;5035798;28;20071;-74
2021/10/04 11:06:08;;;;;;;4.47;0.80;;;;;;;;;;5031979;28;20029;-73
2021/10/04 11:08:45;;;;;;;4.38;0.88;;;;;;;;;;5061209;28;20204;-74
2021/10/04 11:11:19;;;;;;;6.35;0.85;;;;;;;;;;5031016;28;20034;-74
2021/10/04 11:13:58;;;;;;;3.35;0.90;;;;;;;;;;5041171;28;20025;-75
2021/10/04 11:16:26;;;;;;;2.60;0.75;;;;;;;;;;5037825;28;20509;-74
2021/10/04 11:18:54;;;;;;;4.18;0.60;;;;;;;;;;5038131;28;20398;-73
2021/10/04 11:21:28;;;;;;;3.65;0.70;;;;;;;;;;5042861;28;20032;-73
2021/10/04 11:24:07;;;;;;;4.40;1.02;;;;;;;;;;5040383;28;20065;-73
2021/10/04 11:26:35;;;;;;;2.25;0.52;;;;;;;;;;5035878;28;20021;-73
2021/10/04 11:29:05;;;;;;;5.75;0.88;;;;;;;;;;5055030;28;20116;-74
2021/10/04 11:31:33;;;;;;;4.38;0.70;;;;;;;;;;5042269;28;20082;-74
2021/10/04 11:34:04;;;;;;;5.63;0.57;;;;;;;;;;5049842;28;20485;-73
2021/10/04 11:36:31;;;;;;;4.80;0.80;;;;;;;;;;5042317;28;20032;-74
2021/10/04 11:39:00;;;;;;;5.00;0.52;;;;;;;;;;5048232;28;20426;-74
2021/10/04 11:41:30;;;;;;;3.33;0.52;;;;;;;;;;5035509;28;20132;-73
2021/10/04 11:43:58;;;;;;;3.10;0.77;;;;;;;;;;5053990;28;20044;-74
2021/10/04 11:46:27;;;;;;;5.20;0.63;;;;;;;;;;5037879;28;20033;-74
2021/10/04 11:49:12;;;;;;;3.40;0.40;;;;;;;;;;5063657;28;20037;-76
2021/10/04 11:51:49;;;;;;;3.58;0.73;;;;;;;;;;5047896;28;20108;-75
2021/10/04 11:54:36;;;;;;;3.67;0.95;;;;;;;;;;5035595;28;20036;-74
2021/10/04 11:57:08;;;;;;;3.22;0.47;;;;;;;;;;5048548;28;20059;-73
2021/10/04 11:59:47;;;;;;;2.58;0.60;;;;;;;;;;5035246;28;20033;-75
2021/10/04 12:02:28;;;;;;;1.98;0.47;;;;;;;;;;5046172;28;20100;-73
2021/10/04 12:05:13;;;;;;;4.45;0.65;;;;;;;;;;5035640;28;20115;-73
2021/10/04 12:08:00;;;;;;;3.67;0.75;;;;;;;;;;5044899;28;20424;-73
2021/10/04 12:10:57;;;;;;;2.70;0.60;;;;;;;;;;5040228;28;20043;-74
2021/10/04 12:13:25;;;;;;;3.90;0.55;;;;;;;;;;5041272;28;20032;-73
2021/10/04 12:15:54;;;;;;;5.35;0.60;;;;;;;;;;5042235;28;20021;-74
2021/10/04 12:18:22;;;;;;;3.65;0.80;;;;;;;;;;5043190;28;20022;-74
2021/10/04 12:20:50;;;;;;;3.60;0.50;;;;;;;;;;5038958;28;20097;-74
2021/10/04 12:23:26;;;;;;;5.85;0.95;;;;;;;;;;5050944;28;20020;-73
2021/10/04 12:25:54;;;;;;;6.43;1.00;;;;;;;;;;5048070;28;20029;-74
2021/10/04 12:28:22;;;;;;;4.85;0.90;;;;;;;;;;5038115;28;20044;-74
2021/10/04 12:30:53;;;;;;;4.55;0.50;;;;;;;;;;5042051;28;20478;-74
2021/10/04 12:33:21;;;;;;;4.90;0.60;;;;;;;;;;5039760;28;20022;-75
2021/10/04 12:35:51;;;;;;;4.35;0.43;;;;;;;;;;5045862;28;20021;-74
2021/10/04 12:38:20;;;;;;;2.80;0.40;;;;;;;;;;5046219;28;20393;-74
2021/10/04 12:40:58;;;;;;;3.50;0.55;;;;;;;;;;5049912;28;20043;-75
2021/10/04 12:43:26;;;;;;;1.33;0.38;;;;;;;;;;5049866;28;20112;-74
2021/10/04 12:45:59;;;;;;;3.92;0.63;;;;;;;;;;5040188;28;20068;-75
2021/10/04 12:48:27;;;;;;;5.70;0.52;;;;;;;;;;5043640;28;20380;-75
2021/10/04 12:51:07;;;;;;;4.07;0.50;;;;;;;;;;5036960;28;20033;-75
2021/10/04 12:53:34;;;;;;;3.78;0.80;;;;;;;;;;5041876;28;20041;-74
2021/10/04 12:56:03;;;;;;;2.72;0.57;;;;;;;;;;5040660;28;20074;-75
2021/10/04 12:58:32;;;;;;;6.03;0.60;;;;;;;;;;5051543;28;20025;-73
2021/10/04 13:01:15;;;;;;;3.63;0.52;;;;;;;;;;5044121;28;20486;-74
2021/10/04 13:03:53;;;;;;;2.97;0.40;;;;;;;;;;5047470;28;20036;-74
2021/10/04 13:06:20;;;;;;;4.13;0.90;;;;;;;;;;5034271;28;20390;-74
2021/10/04 13:08:50;;;;;;;3.03;0.40;;;;;;;;;;5043031;28;20037;-75
2021/10/04 13:11:18;;;;;;;3.45;0.63;;;;;;;;;;5033715;28;20109;-74
2021/10/04 13:13:45;;;;;;;3.33;0.60;;;;;;;;;;5032422;28;20072;-74
2021/10/04 13:16:13;;;;;;;2.55;0.60;;;;;;;;;;5041243;28;20109;-74
2021/10/04 13:18:40;;;;;;;3.25;0.60;;;;;;;;;;5050180;28;20036;-75
2021/10/04 13:21:07;;;;;;;4.75;0.73;;;;;;;;;;5038804;28;20021;-74
2021/10/04 13:23:35;;;;;;;5.32;0.52;;;;;;;;;;5051435;28;20104;-74
2021/10/04 13:26:04;;;;;;;4.20;1.20;;;;;;;;;;5048575;28;20021;-74
2021/10/04 13:28:36;;;;;;;3.45;0.60;;;;;;;;;;5036059;28;20037;-74
2021/10/04 13:31:08;;;;;;;4.15;1.38;;;;;;;;;;5037078;28;20021;-75
2021/10/04 13:33:36;;;;;;;4.45;0.90;;;;;;;;;;5039356;28;20039;-74
2021/10/04 13:36:04;;;;;;;8.45;1.60;;;;;;;;;;5039388;28;20034;-74
2021/10/04 13:38:31;;;;;;;3.33;0.93;;;;;;;;;;5048245;28;20467;-74
2021/10/04 13:40:58;;;;;;;5.32;0.73;;;;;;;;;;5038002;28;20021;-74
2021/10/04 13:43:26;;;;;;;6.15;1.35;;;;;;;;;;5033533;28;20029;-74
2021/10/04 13:45:54;;;;;;;4.20;0.75;;;;;;;;;;5038916;28;20033;-75
2021/10/04 13:48:22;;;;;;;3.10;1.08;;;;;;;;;;5045977;28;20059;-75
2021/10/04 13:50:50;;;;;;;3.33;1.15;;;;;;;;;;5051912;28;20116;-74
2021/10/04 13:53:18;;;;;;;3.72;0.70;;;;;;;;;;5050806;28;20028;-74
2021/10/04 13:55:45;;;;;;;2.80;0.82;;;;;;;;;;5043147;28;20381;-74
2021/10/04 13:58:12;;;;;;;5.53;0.65;;;;;;;;;;5042039;28;20116;-73
2021/10/04 14:00:39;;;;;;;6.03;0.47;;;;;;;;;;5039798;28;20014;-73
2021/10/04 14:03:06;;;;;;;6.00;0.90;;;;;;;;;;5036988;28;20075;-74
2021/10/04 14:05:33;;;;;;;4.25;0.88;;;;;;;;;;5041205;28;20029;-74
2021/10/04 14:08:01;;;;;;;3.95;0.63;;;;;;;;;;5045946;28;20048;-74
2021/10/04 14:10:29;;;;;;;7.78;0.73;;;;;;;;;;5044907;28;20104;-74
2021/10/04 14:12:56;;;;;;;6.38;1.30;;;;;;;;;;5048753;28;20056;-74
2021/10/04 14:15:26;;;;;;;4.50;0.80;;;;;;;;;;5046380;28;20025;-73
2021/10/04 14:17:53;;;;;;;3.97;0.75;;;;;;;;;;5042920;28;20053;-73
2021/10/04 14:20:20;;;;;;;6.43;0.75;;;;;;;;;;5051681;28;20025;-73
2021/10/04 14:22:48;;;;;;;5.57;0.80;;;;;;;;;;5043308;28;20061;-73
2021/10/04 14:25:17;;;;;;;3.25;0.60;;;;;;;;;;5041649;28;20020;-73
2021/10/04 14:27:45;;;;;;;6.78;0.88;;;;;;;;;;5038689;28;20527;-73
2021/10/04 14:30:12;;;;;;;2.90;0.77;;;;;;;;;;5040565;28;20029;-73
2021/10/04 14:32:40;;;;;;;5.90;1.08;;;;;;;;;;5046526;28;20504;-73
2021/10/04 14:35:11;;;;;;;5.85;0.60;;;;;;;;;;5034140;28;20026;-72
2021/10/04 14:37:38;;;;;;;3.30;0.47;;;;;;;;;;5038949;28;20504;-73
2021/10/04 14:40:07;;;;;;;6.15;0.73;;;;;;;;;;5047191;28;20072;-73
2021/10/04 14:42:35;;;;;;;3.00;0.40;;;;;;;;;;5051758;28;20090;-74
2021/10/04 14:45:02;;;;;;;3.85;0.63;;;;;;;;;;5051579;28;20120;-73
2021/10/04 14:47:29;;;;;;;3.90;0.75;;;;;;;;;;5047543;28;20061;-73
2021/10/04 14:49:57;;;;;;;5.95;0.80;;;;;;;;;;5036137;28;20435;-74
2021/10/04 14:52:24;;;;;;;3.75;0.50;;;;;;;;;;5048213;28;20047;-72
2021/10/04 14:54:52;;;;;;;5.57;0.57;;;;;;;;;;5049734;28;20025;-73